Innsbruck Airport


Codes: LOWI/INN
Name: Innsbruck Airport
City: Innsbruck
Country: Austria
Elevation: 1906 ft.
Website:
Wikipedia:

Photos at Innsbruck Airport


   Photos courtesy of SpottingLog. You can add your own sightings and photos by signing up for a free trial today.



G-OOBF, 01-Feb-2020
© Eckhardt Philipp

G-FDZS, 01-Feb-2020
© Eckhardt Philipp

PH-HXJ, 01-Feb-2020
© Eckhardt Philipp

F-HTVC, 01-Feb-2020
© Eckhardt Philipp

OH-LXL, 01-Feb-2020
© Eckhardt Philipp

G-TAWL, 01-Feb-2020
© Eckhardt Philipp

D-ABKJ, 01-Feb-2020
© Eckhardt Philipp

G-OOBB, 01-Feb-2020
© Eckhardt Philipp

SE-ROY, 01-Feb-2020
© Eckhardt Philipp

G-EZRT, 01-Feb-2020
© Eckhardt Philipp

G-OOBA, 01-Feb-2020
© Eckhardt Philipp

G-JZHW, 01-Feb-2020
© Eckhardt Philipp


Weather at Innsbruck Airport


Time (UTC)DescriptionTempratureWindCloud coverageVisibilityPressureHumidity
16-Jun-2024 09:00Broken Clouds16°C2 mph, NE75%10000m1012hPa88%
16-Jun-2024 12:00Broken Clouds18°C4 mph, NE83%10000m1011hPa76%
16-Jun-2024 15:00Light Rain20°C4 mph, N92%10000m1011hPa69%
16-Jun-2024 18:00Light Rain18°C2 mph, N89%10000m1012hPa90%
16-Jun-2024 21:00Light Rain15°C2 mph, N97%10000m1016hPa96%
17-Jun-2024 00:00Overcast Clouds16°C2 mph, SW98%10000m1017hPa96%
17-Jun-2024 03:00Overcast Clouds15°C0 mph, S100%10000m1017hPa96%
17-Jun-2024 06:00Light Rain17°C2 mph, E100%10000m1017hPa93%
17-Jun-2024 09:00Light Rain21°C2 mph, E80%9514m1016hPa73%
17-Jun-2024 12:00Light Rain24°C4 mph, NE78%10000m1015hPa62%
17-Jun-2024 15:00Light Rain22°C4 mph, N83%8003m1016hPa79%
17-Jun-2024 18:00Light Rain19°C2 mph, N77%10000m1018hPa93%
17-Jun-2024 21:00Light Rain16°C2 mph, S75%10000m1020hPa96%
18-Jun-2024 00:00Overcast Clouds15°C2 mph, S87%10000m1020hPa95%
18-Jun-2024 03:00Broken Clouds14°C4 mph, S84%10000m1020hPa94%
18-Jun-2024 06:00Overcast Clouds19°C2 mph, S88%10000m1019hPa85%
18-Jun-2024 09:00Overcast Clouds27°C2 mph, SE87%10000m1017hPa48%
18-Jun-2024 12:00Broken Clouds30°C4 mph, SE78%10000m1015hPa33%
18-Jun-2024 15:00Overcast Clouds28°C2 mph, SW99%10000m1014hPa44%
18-Jun-2024 18:00Light Rain23°C2 mph, SW91%10000m1016hPa69%
18-Jun-2024 21:00Light Rain18°C4 mph, S49%10000m1018hPa90%
19-Jun-2024 00:00Scattered Clouds17°C4 mph, SW34%10000m1019hPa90%
19-Jun-2024 03:00Light Rain16°C2 mph, W48%10000m1020hPa93%
19-Jun-2024 06:00Broken Clouds19°C2 mph, S59%10000m1021hPa84%
19-Jun-2024 09:00Light Rain26°C4 mph, N22%10000m1019hPa56%
19-Jun-2024 12:00Light Rain29°C4 mph, N20%10000m1018hPa40%
19-Jun-2024 15:00Light Rain29°C7 mph, N49%10000m1018hPa42%
19-Jun-2024 18:00Light Rain23°C4 mph, N28%10000m1022hPa88%
19-Jun-2024 21:00Light Rain18°C2 mph, SE17%10000m1024hPa98%
20-Jun-2024 00:00Scattered Clouds18°C2 mph, SW31%10000m1024hPa95%
20-Jun-2024 03:00Few Clouds16°C4 mph, SW12%10000m1023hPa85%
20-Jun-2024 06:00Clear Sky23°C2 mph, S8%10000m1021hPa69%
20-Jun-2024 09:00Clear Sky32°C2 mph, SE3%10000m1019hPa31%
20-Jun-2024 12:00Few Clouds35°C4 mph, NE15%10000m1018hPa24%
20-Jun-2024 15:00Broken Clouds32°C4 mph, N83%10000m1017hPa41%
20-Jun-2024 18:00Broken Clouds27°C2 mph, E83%10000m1018hPa65%
20-Jun-2024 21:00Overcast Clouds22°C2 mph, SW97%10000m1021hPa78%
21-Jun-2024 00:00Broken Clouds21°C4 mph, S78%10000m1020hPa83%
21-Jun-2024 03:00Broken Clouds22°C4 mph, S83%10000m1019hPa79%
21-Jun-2024 06:00Broken Clouds26°C4 mph, S84%10000m1017hPa65%